Time;durP1;ratioP1;P1;durP2;ratioP2;P2;SDS_P1;SDS_P2;PMS_P1;PMS_P2;Temp;Humidity;BMP_temperature;BMP_pressure;BME280_temperature;BME280_humidity;BME280_pressure;Samples;Min_cycle;Max_cycle;Signal;HPM_P1;HPM_P2
2022/09/12 00:01:10;;;;;;;98.80;36.08;;;;;;;11.39;100.00;101466.91;1969984;28;20021;-70
2022/09/12 00:02:07;;;;;;;103.20;37.00;;;;;;;11.35;100.00;101466.13;1970072;28;20473;-70
2022/09/12 00:03:04;;;;;;;94.50;34.70;;;;;;;11.35;100.00;101466.13;1970373;28;20038;-70
2022/09/12 00:04:02;;;;;;;102.93;37.45;;;;;;;11.35;100.00;101465.31;1970539;28;20029;-70
2022/09/12 00:04:59;;;;;;;114.70;36.90;;;;;;;11.36;100.00;101464.38;1970709;28;20422;-70
2022/09/12 00:05:57;;;;;;;108.13;37.70;;;;;;;11.35;100.00;101462.69;1968617;28;20107;-69
2022/09/12 00:06:54;;;;;;;99.60;37.10;;;;;;;11.33;100.00;101460.97;1970467;28;20058;-69
2022/09/12 00:07:51;;;;;;;109.60;38.58;;;;;;;11.33;100.00;101455.72;1970657;28;20062;-70
2022/09/12 00:08:52;;;;;;;112.72;37.40;;;;;;;11.33;100.00;101458.34;1970646;28;20068;-69
2022/09/12 00:09:50;;;;;;;107.38;38.10;;;;;;;11.34;100.00;101459.22;1970670;28;20351;-69
2022/09/12 00:10:48;;;;;;;109.72;38.08;;;;;;;11.32;100.00;101456.66;1970574;28;20144;-69
2022/09/12 00:11:46;;;;;;;110.18;37.95;;;;;;;11.30;100.00;101450.59;1970645;28;20061;-69
2022/09/12 00:12:43;;;;;;;111.85;39.17;;;;;;;11.30;100.00;101458.44;1970592;28;20101;-69
2022/09/12 00:13:42;;;;;;;109.80;38.75;;;;;;;11.28;100.00;101448.97;1970684;28;20034;-70
2022/09/12 00:14:39;;;;;;;130.15;40.00;;;;;;;11.29;100.00;101456.75;1970588;28;20104;-70
2022/09/12 00:15:42;;;;;;;122.82;40.47;;;;;;;11.30;100.00;101448.00;1970523;28;20030;-70
2022/09/12 00:16:41;;;;;;;126.57;41.13;;;;;;;11.30;100.00;101447.16;1970455;28;20030;-70
2022/09/12 00:17:38;;;;;;;128.40;41.25;;;;;;;11.29;100.00;101454.13;1970665;28;20088;-70
2022/09/12 00:18:36;;;;;;;131.40;41.50;;;;;;;11.28;100.00;101449.81;1970550;28;20156;-69
2022/09/12 00:19:33;;;;;;;125.00;40.05;;;;;;;11.27;100.00;101448.13;1970555;28;20402;-70
2022/09/12 00:20:31;;;;;;;124.78;41.85;;;;;;;11.27;100.00;101444.66;1970438;28;20040;-70
2022/09/12 00:21:28;;;;;;;124.32;41.65;;;;;;;11.24;100.00;101443.00;1970436;28;20029;-70
2022/09/12 00:22:26;;;;;;;131.18;41.55;;;;;;;11.24;100.00;101448.22;1970615;28;20508;-70
2022/09/12 00:23:23;;;;;;;130.68;40.97;;;;;;;11.23;100.00;101443.06;1970471;28;20029;-69
2022/09/12 00:24:21;;;;;;;135.52;43.13;;;;;;;11.20;100.00;101442.25;1970518;28;20105;-70
2022/09/12 00:25:19;;;;;;;137.13;43.10;;;;;;;11.23;100.00;101445.69;1970472;28;20030;-70
2022/09/12 00:26:19;;;;;;;138.05;42.70;;;;;;;11.24;100.00;101443.00;1970386;28;20037;-69
2022/09/12 00:27:17;;;;;;;147.63;45.22;;;;;;;11.22;100.00;101444.81;1970379;28;20053;-69
2022/09/12 00:28:16;;;;;;;155.93;47.90;;;;;;;11.23;100.00;101437.84;1970554;28;20440;-70
2022/09/12 00:29:20;;;;;;;145.82;44.25;;;;;;;11.23;100.00;101440.44;1970498;28;20368;-69
2022/09/12 00:30:17;;;;;;;135.05;43.88;;;;;;;11.20;100.00;101444.84;1970562;28;20398;-69
2022/09/12 00:31:19;;;;;;;138.35;42.30;;;;;;;11.19;100.00;101450.16;1970335;28;20029;-69
2022/09/12 00:32:17;;;;;;;133.98;41.58;;;;;;;11.18;100.00;101443.22;1970424;28;20112;-69
2022/09/12 00:33:16;;;;;;;144.18;44.75;;;;;;;11.20;100.00;101441.41;1970447;28;20036;-69
2022/09/12 00:34:14;;;;;;;158.23;45.25;;;;;;;11.20;100.00;101436.19;1970546;28;20034;-69
2022/09/12 00:35:11;;;;;;;148.02;44.10;;;;;;;11.19;100.00;101440.56;1977585;28;20060;-70
2022/09/12 00:36:14;;;;;;;145.88;43.95;;;;;;;11.18;100.00;101443.22;1975440;28;20068;-70
2022/09/12 00:37:11;;;;;;;136.30;42.70;;;;;;;11.17;100.00;101442.38;1970639;28;20361;-69
2022/09/12 00:38:10;;;;;;;142.70;43.95;;;;;;;11.17;100.00;101438.91;1970369;28;20022;-69
2022/09/12 00:39:08;;;;;;;138.43;43.38;;;;;;;11.16;100.00;101434.59;1970389;28;20018;-69
2022/09/12 00:40:06;;;;;;;151.25;43.47;;;;;;;11.15;100.00;101435.50;1970294;28;20033;-69
2022/09/12 00:41:05;;;;;;;145.27;44.17;;;;;;;11.20;100.00;101438.81;1970387;28;20338;-70
2022/09/12 00:42:02;;;;;;;142.38;43.75;;;;;;;11.22;100.00;101436.97;1969736;28;20030;-70
2022/09/12 00:43:00;;;;;;;147.63;43.10;;;;;;;11.22;100.00;101436.13;1969844;28;20057;-70
2022/09/12 00:44:22;;;;;;;143.90;44.80;;;;;;;11.19;100.00;101440.56;1970250;28;20516;-70
2022/09/12 00:45:27;;;;;;;153.73;41.40;;;;;;;11.14;100.00;101432.03;1970332;28;20597;-69
2022/09/12 00:46:38;;;;;;;142.45;42.33;;;;;;;11.14;100.00;101436.41;1970139;28;20034;-70
2022/09/12 00:47:36;;;;;;;;;;;;;;;11.08;100.00;101427.88;1970849;28;20037;-69
2022/09/12 00:48:51;;;;;;;133.32;38.35;;;;;;;11.06;100.00;101431.44;1970291;28;20277;-70
2022/09/12 00:50:12;;;;;;;139.23;40.95;;;;;;;11.03;100.00;101423.72;1970272;28;20027;-69
2022/09/12 00:51:14;;;;;;;139.20;39.80;;;;;;;11.01;100.00;101426.38;1970226;28;20044;-70
2022/09/12 00:52:18;;;;;;;139.73;39.50;;;;;;;11.02;100.00;101433.31;1970197;28;20036;-69
2022/09/12 00:53:17;;;;;;;133.18;40.60;;;;;;;11.03;100.00;101429.81;1970356;28;20057;-69
2022/09/12 00:54:23;;;;;;;131.18;40.90;;;;;;;11.03;100.00;101424.59;1970334;28;20034;-70
2022/09/12 00:55:25;;;;;;;138.93;41.00;;;;;;;11.01;100.00;101426.38;1970313;28;20034;-70
2022/09/12 00:56:23;;;;;;;134.85;40.65;;;;;;;10.99;100.00;101428.22;1970121;28;20036;-69
2022/09/12 00:57:29;;;;;;;143.88;41.45;;;;;;;11.02;100.00;101425.47;1970351;28;20532;-70
2022/09/12 00:58:41;;;;;;;132.35;41.15;;;;;;;10.99;100.00;101428.22;1970226;28;20041;-68
2022/09/12 01:00:00;;;;;;;144.75;41.95;;;;;;;10.96;100.00;101423.09;1970281;28;20030;-70
2022/09/12 01:00:57;;;;;;;138.85;40.53;;;;;;;10.93;100.00;101413.59;1970164;28;20022;-69
2022/09/12 01:01:55;;;;;;;139.93;42.65;;;;;;;10.95;100.00;101419.63;1970202;28;20034;-69
2022/09/12 01:03:09;;;;;;;147.95;42.63;;;;;;;10.96;100.00;101417.88;1970061;28;20357;-70
2022/09/12 01:04:10;;;;;;;165.85;45.65;;;;;;;10.95;100.00;101421.38;1970135;28;20021;-69
2022/09/12 01:05:09;;;;;;;159.50;43.40;;;;;;;10.92;100.00;101416.28;1970217;28;20109;-69
2022/09/12 01:06:22;;;;;;;157.63;44.75;;;;;;;10.92;100.00;101411.88;1968081;28;20079;-69
2022/09/12 01:07:20;;;;;;;154.48;43.05;;;;;;;10.90;100.00;101418.06;1970179;28;20054;-69
2022/09/12 01:08:19;;;;;;;166.00;45.88;;;;;;;10.90;100.00;101413.72;1970282;28;20022;-69
2022/09/12 01:09:21;;;;;;;160.88;45.25;;;;;;;10.89;100.00;101412.00;1970202;28;20109;-69
2022/09/12 01:10:20;;;;;;;171.98;47.40;;;;;;;10.88;100.00;101414.66;1969631;28;20084;-69
2022/09/12 01:11:20;;;;;;;156.75;44.97;;;;;;;10.88;100.00;101409.44;1969482;28;20045;-69
2022/09/12 01:12:18;;;;;;;;;;;;;;;10.80;100.00;101412.31;1970603;28;20490;-69
2022/09/12 01:13:15;;;;;;;142.88;39.75;;;;;;;10.80;100.00;101412.31;1969948;28;19936;-69
2022/09/12 01:14:15;;;;;;;140.88;41.83;;;;;;;10.80;100.00;101407.94;1970216;28;20046;-70
2022/09/12 01:15:13;;;;;;;157.95;43.47;;;;;;;10.82;100.00;101411.34;1970209;28;20034;-69
2022/09/12 01:16:11;;;;;;;155.45;44.70;;;;;;;10.84;100.00;101402.63;1977123;28;20025;-68
2022/09/12 01:17:15;;;;;;;157.63;43.60;;;;;;;10.85;100.00;101402.59;1977233;28;20462;-69
2022/09/12 01:18:20;;;;;;;167.07;44.92;;;;;;;10.85;100.00;101399.09;1970122;28;20055;-68
2022/09/12 01:19:57;;;;;;;167.23;45.65;;;;;;;10.85;100.00;101401.72;1970094;28;20098;-68
2022/09/12 01:21:23;;;;;;;158.93;43.55;;;;;;;10.86;100.00;101400.81;1970109;28;20061;-68
2022/09/12 01:23:03;;;;;;;161.93;43.55;;;;;;;10.88;100.00;101404.22;1977239;28;20025;-68
2022/09/12 01:24:29;;;;;;;161.00;42.95;;;;;;;10.90;100.00;101407.63;1969527;28;20038;-68
2022/09/12 01:26:18;;;;;;;177.95;42.70;;;;;;;10.85;100.00;101404.31;1964532;28;20068;-69
2022/09/12 01:27:40;;;;;;;160.90;42.88;;;;;;;10.78;100.00;101407.13;1969962;28;20038;-69
2022/09/12 01:29:00;;;;;;;166.73;43.88;;;;;;;10.80;100.00;101407.09;1970049;28;20044;-70
2022/09/12 01:30:42;;;;;;;158.40;40.95;;;;;;;10.87;100.00;101397.28;1970009;28;20034;-69
2022/09/12 01:32:22;;;;;;;171.98;42.65;;;;;;;10.90;100.00;101386.72;1969909;28;20044;-69
2022/09/12 01:33:45;;;;;;;168.48;42.13;;;;;;;10.91;100.00;101389.28;1969400;28;20068;-69
2022/09/12 01:35:09;;;;;;;160.65;42.42;;;;;;;10.88;100.00;101391.16;1969642;28;20088;-69
2022/09/12 01:36:33;;;;;;;170.07;43.22;;;;;;;10.85;100.00;101394.75;1967866;28;20033;-68
2022/09/12 01:37:48;;;;;;;165.40;43.33;;;;;;;10.81;100.00;101387.91;1970107;28;20032;-69
2022/09/12 01:39:01;;;;;;;167.80;44.97;;;;;;;10.78;100.00;101388.84;1969390;28;20037;-67
2022/09/12 01:40:22;;;;;;;166.35;44.35;;;;;;;10.77;100.00;101395.00;1969454;28;20057;-68
2022/09/12 01:42:13;;;;;;;160.50;45.10;;;;;;;10.72;100.00;101389.09;1970027;28;20029;-68
2022/09/12 01:43:33;;;;;;;154.35;40.70;;;;;;;10.75;100.00;101386.38;1968843;28;20494;-68
2022/09/12 01:44:58;;;;;;;163.23;43.13;;;;;;;10.76;100.00;101384.59;1969337;28;20374;-69
2022/09/12 01:46:14;;;;;;;182.98;45.70;;;;;;;10.75;100.00;101382.91;1969555;28;20034;-69
2022/09/12 01:47:25;;;;;;;172.15;45.13;;;;;;;10.76;100.00;101387.22;1969874;28;20105;-68
2022/09/12 01:48:30;;;;;;;166.93;45.47;;;;;;;10.77;100.00;101392.38;1969911;28;20058;-68
2022/09/12 01:49:56;;;;;;;167.50;46.85;;;;;;;10.79;100.00;101389.72;1970013;28;20120;-68
2022/09/12 01:51:22;;;;;;;172.68;46.67;;;;;;;10.77;100.00;101383.69;1969932;28;20026;-68
2022/09/12 01:52:49;;;;;;;176.25;46.22;;;;;;;10.71;100.00;101382.13;1969958;28;20390;-68
2022/09/12 01:54:04;;;;;;;176.48;46.40;;;;;;;10.68;100.00;101384.88;1969910;28;20029;-68
2022/09/12 01:55:15;;;;;;;174.07;45.50;;;;;;;10.65;100.00;101378.00;1969852;28;20149;-69
2022/09/12 01:56:21;;;;;;;177.90;46.78;;;;;;;10.65;100.00;101382.38;1969850;28;20026;-68
2022/09/12 01:57:28;;;;;;;182.07;47.00;;;;;;;10.64;100.00;101375.44;1969917;28;20048;-68
2022/09/12 01:58:46;;;;;;;199.63;48.60;;;;;;;10.64;100.00;101376.28;1969306;28;20636;-69
2022/09/12 01:59:49;;;;;;;184.63;48.58;;;;;;;10.66;100.00;101373.63;1969573;28;20062;-68
2022/09/12 02:01:10;;;;;;;190.65;48.33;;;;;;;10.66;100.00;101373.63;1969299;28;20030;-69
2022/09/12 02:02:15;;;;;;;192.68;48.97;;;;;;;10.66;100.00;101369.28;1969463;28;20030;-68
2022/09/12 02:03:26;;;;;;;185.15;48.33;;;;;;;10.65;100.00;101366.72;1969679;28;20088;-68
2022/09/12 02:04:32;;;;;;;186.85;47.42;;;;;;;10.63;100.00;101371.13;1969854;28;20037;-69
2022/09/12 02:05:39;;;;;;;178.80;48.55;;;;;;;10.61;100.00;101367.72;1976924;28;20098;-69
2022/09/12 02:07:00;;;;;;;185.05;47.88;;;;;;;10.59;100.00;101356.47;1974268;28;20067;-68
2022/09/12 02:08:45;;;;;;;198.43;49.65;;;;;;;10.59;100.00;101356.47;1969855;28;20029;-68
2022/09/12 02:09:55;;;;;;;185.82;45.85;;;;;;;10.58;100.00;101360.00;1971293;28;20036;-69
2022/09/12 02:11:05;;;;;;;181.82;49.00;;;;;;;10.59;100.00;101361.69;1971393;28;20061;-69
2022/09/12 02:12:06;;;;;;;194.40;47.45;;;;;;;10.58;100.00;101357.38;1971352;28;20689;-68
2022/09/12 02:13:17;;;;;;;195.90;49.17;;;;;;;10.58;100.00;101360.84;1971259;28;20054;-69
2022/09/12 02:14:24;;;;;;;175.13;47.80;;;;;;;10.56;100.00;101357.44;1970512;28;20036;-69
2022/09/12 02:15:33;;;;;;;189.07;49.70;;;;;;;10.57;100.00;101351.28;1970793;28;20116;-68
2022/09/12 02:16:45;;;;;;;204.32;50.08;;;;;;;10.58;100.00;101354.75;1971106;28;20073;-68
2022/09/12 02:17:49;;;;;;;193.43;48.28;;;;;;;10.55;100.00;101356.56;1971262;28;20510;-69
2022/09/12 02:18:54;;;;;;;185.43;48.20;;;;;;;10.55;100.00;101356.56;1971331;28;20080;-68
2022/09/12 02:19:58;;;;;;;195.50;49.25;;;;;;;10.55;100.00;101351.34;1971343;28;20026;-68
2022/09/12 02:20:59;;;;;;;186.30;49.58;;;;;;;10.54;100.00;101354.88;1971400;28;20060;-68
2022/09/12 02:22:03;;;;;;;204.57;49.58;;;;;;;10.58;100.00;101365.22;1971411;28;20102;-68
2022/09/12 02:23:08;;;;;;;197.77;49.00;;;;;;;10.59;100.00;101357.31;1971466;28;20026;-69
2022/09/12 02:24:11;;;;;;;194.00;49.95;;;;;;;10.60;100.00;101360.81;1971418;28;20105;-68
2022/09/12 02:25:14;;;;;;;192.00;49.17;;;;;;;10.61;100.00;101362.50;1971361;28;20022;-68
2022/09/12 02:26:24;;;;;;;193.15;49.05;;;;;;;10.59;100.00;101356.47;1971361;28;20120;-69
2022/09/12 02:27:43;;;;;;;179.38;48.30;;;;;;;10.55;100.00;101355.72;1971501;28;20045;-68
2022/09/12 02:28:42;;;;;;;201.55;50.17;;;;;;;10.53;100.00;101353.16;1970600;28;20030;-69
2022/09/12 02:29:41;;;;;;;187.32;49.67;;;;;;;10.55;100.00;101355.72;1970832;28;20042;-68
2022/09/12 02:31:06;;;;;;;180.68;48.70;;;;;;;10.53;100.00;101361.00;1971291;28;20032;-68
2022/09/12 02:32:21;;;;;;;183.02;46.90;;;;;;;10.50;100.00;101348.03;1970700;28;20042;-68
2022/09/12 02:33:36;;;;;;;175.23;46.08;;;;;;;10.48;100.00;101357.69;1970848;28;20034;-69
2022/09/12 02:34:49;;;;;;;186.35;46.85;;;;;;;10.47;100.00;101363.81;1971274;28;20052;-69
2022/09/12 02:35:57;;;;;;;182.02;47.05;;;;;;;10.47;100.00;101361.19;1971248;28;20485;-69
2022/09/12 02:37:43;;;;;;;177.38;47.22;;;;;;;10.47;100.00;101366.41;1970542;28;20369;-68
2022/09/12 02:38:45;;;;;;;166.50;43.25;;;;;;;10.44;100.00;101363.91;1971384;28;20048;-69
2022/09/12 02:39:43;;;;;;;171.27;45.92;;;;;;;10.44;100.00;101361.28;1971331;28;20034;-69
2022/09/12 02:40:42;;;;;;;185.40;47.42;;;;;;;10.45;100.00;101362.16;1970628;28;20028;-69
2022/09/12 02:41:39;;;;;;;179.90;46.80;;;;;;;10.44;100.00;101363.91;1970723;28;20028;-69
2022/09/12 02:42:37;;;;;;;171.88;46.20;;;;;;;10.42;100.00;101363.09;1971174;28;20042;-69
2022/09/12 02:43:36;;;;;;;187.40;47.35;;;;;;;10.42;100.00;101363.09;1971250;28;20060;-69
2022/09/12 02:44:35;;;;;;;188.35;49.15;;;;;;;10.42;100.00;101363.09;1971296;28;20035;-69
2022/09/12 02:45:35;;;;;;;177.48;47.53;;;;;;;10.41;100.00;101364.00;1978403;28;20030;-69
2022/09/12 02:46:43;;;;;;;173.30;46.72;;;;;;;10.40;100.00;101357.09;1978332;28;20496;-69
2022/09/12 02:48:01;;;;;;;187.50;48.42;;;;;;;10.39;100.00;101355.34;1971291;28;20038;-69
2022/09/12 02:48:59;;;;;;;173.55;45.28;;;;;;;10.38;100.00;101349.31;1971179;28;20036;-70
2022/09/12 02:49:58;;;;;;;180.02;46.72;;;;;;;10.41;100.00;101343.13;1971240;28;20452;-69
2022/09/12 02:50:56;;;;;;;191.73;48.15;;;;;;;10.44;100.00;101345.63;1971216;28;20458;-69
2022/09/12 02:51:54;;;;;;;213.05;49.95;;;;;;;10.45;100.00;101352.59;1971195;28;20030;-68
2022/09/12 02:52:54;;;;;;;190.20;49.25;;;;;;;10.45;100.00;101349.09;1971286;28;20030;-69
2022/09/12 02:53:52;;;;;;;201.57;49.83;;;;;;;10.42;100.00;101344.81;1970583;28;20030;-69
2022/09/12 02:54:51;;;;;;;182.90;47.08;;;;;;;10.41;100.00;101343.13;1970654;28;20025;-68
2022/09/12 02:55:50;;;;;;;184.35;49.08;;;;;;;10.41;100.00;101345.72;1971060;28;20021;-69
2022/09/12 02:56:47;;;;;;;186.95;48.00;;;;;;;10.40;100.00;101342.25;1971214;28;20473;-69
2022/09/12 02:57:45;;;;;;;187.85;48.53;;;;;;;10.40;100.00;101338.81;1971032;28;20033;-68
2022/09/12 02:58:43;;;;;;;191.40;48.53;;;;;;;10.40;100.00;101341.44;1971279;28;20045;-69
2022/09/12 02:59:41;;;;;;;195.68;49.65;;;;;;;10.43;100.00;101342.16;1971087;28;20485;-69
2022/09/12 03:01:18;;;;;;;188.23;49.25;;;;;;;10.45;100.00;101334.31;1970513;28;20034;-69
2022/09/12 03:03:11;;;;;;;191.80;47.03;;;;;;;10.40;100.00;101336.22;1967142;28;20045;-69
2022/09/12 03:04:27;;;;;;;189.07;45.70;;;;;;;10.39;100.00;101331.88;1971044;28;20054;-69
2022/09/12 03:05:40;;;;;;;190.48;46.00;;;;;;;10.39;100.00;101335.34;1971084;28;20049;-68
2022/09/12 03:06:59;;;;;;;198.73;47.40;;;;;;;10.38;100.00;101327.56;1968865;28;20034;-68
2022/09/12 03:08:33;;;;;;;188.00;45.47;;;;;;;10.39;100.00;101329.25;1970436;28;20035;-69
2022/09/12 03:10:07;;;;;;;196.88;45.92;;;;;;;10.41;100.00;101330.06;1970813;28;20121;-68
2022/09/12 03:11:32;;;;;;;186.02;44.35;;;;;;;10.42;100.00;101330.03;1978219;28;20029;-68
2022/09/12 03:12:58;;;;;;;189.52;46.72;;;;;;;10.43;100.00;101330.84;1975673;28;20425;-68
2022/09/12 03:14:07;;;;;;;203.25;46.08;;;;;;;10.41;100.00;101322.25;1970981;28;20048;-68
2022/09/12 03:15:20;;;;;;;187.57;46.20;;;;;;;10.41;100.00;101327.47;1971039;28;20021;-68
2022/09/12 03:16:27;;;;;;;190.55;46.75;;;;;;;10.41;100.00;101325.69;1970875;28;20501;-68
2022/09/12 03:17:42;;;;;;;189.75;48.00;;;;;;;10.40;100.00;101324.00;1970974;28;20473;-68
2022/09/12 03:18:50;;;;;;;197.02;47.08;;;;;;;10.40;100.00;101321.38;1970940;28;20414;-68
2022/09/12 03:20:12;;;;;;;187.32;48.92;;;;;;;10.42;100.00;101326.56;1969745;28;20026;-68
2022/09/12 03:21:40;;;;;;;198.93;49.33;;;;;;;10.40;100.00;101326.59;1970999;28;20057;-68
2022/09/12 03:22:56;;;;;;;199.57;46.35;;;;;;;10.37;100.00;101323.25;1970924;28;20619;-68
2022/09/12 03:24:20;;;;;;;187.00;45.70;;;;;;;10.36;100.00;101326.75;1970363;28;20022;-68
2022/09/12 03:25:29;;;;;;;176.68;44.30;;;;;;;10.31;100.00;101327.75;1970607;28;20125;-68
2022/09/12 03:26:51;;;;;;;176.18;45.10;;;;;;;10.34;100.00;101323.34;1970826;28;20418;-67
2022/09/12 03:28:06;;;;;;;186.23;46.65;;;;;;;10.31;100.00;101316.50;1970882;28;20068;-68
2022/09/12 03:29:07;;;;;;;182.38;45.78;;;;;;;10.30;100.00;101320.00;1970917;28;20056;-68
2022/09/12 03:30:07;;;;;;;187.15;45.58;;;;;;;10.34;100.00;101321.63;1970923;28;20108;-68
2022/09/12 03:31:18;;;;;;;181.65;46.63;;;;;;;10.33;100.00;101319.88;1970186;28;20117;-68
2022/09/12 03:32:15;;;;;;;194.27;46.70;;;;;;;10.35;100.00;101322.44;1970391;28;20034;-68
2022/09/12 03:33:20;;;;;;;180.52;46.58;;;;;;;10.36;100.00;101318.91;1970766;28;20034;-68
2022/09/12 03:34:19;;;;;;;178.27;46.42;;;;;;;10.33;100.00;101324.28;1970847;28;20130;-68
2022/09/12 03:35:20;;;;;;;178.80;45.08;;;;;;;10.32;100.00;101323.41;1970883;28;20064;-68
2022/09/12 03:36:28;;;;;;;172.45;45.22;;;;;;;10.34;100.00;101325.97;1968781;28;20030;-68
2022/09/12 03:37:25;;;;;;;188.27;46.58;;;;;;;10.34;100.00;101320.75;1970876;28;20037;-68
2022/09/12 03:38:22;;;;;;;179.10;45.95;;;;;;;10.35;100.00;101325.06;1970847;28;20038;-68
2022/09/12 03:39:23;;;;;;;186.00;45.50;;;;;;;10.34;100.00;101325.97;1970133;28;20040;-68
2022/09/12 03:40:20;;;;;;;184.80;47.75;;;;;;;10.35;100.00;101323.31;1970362;28;20540;-68
2022/09/12 03:41:18;;;;;;;172.75;45.83;;;;;;;10.35;100.00;101323.31;1970740;28;20029;-69
2022/09/12 03:42:15;;;;;;;176.77;46.88;;;;;;;10.36;100.00;101324.13;1970815;28;20466;-68
2022/09/12 03:43:13;;;;;;;193.88;46.30;;;;;;;10.37;100.00;101318.03;1970815;28;20044;-68
2022/09/12 03:44:10;;;;;;;173.35;46.40;;;;;;;10.36;100.00;101317.19;1970933;28;20030;-68
2022/09/12 03:45:09;;;;;;;181.95;46.30;;;;;;;10.36;100.00;101313.69;1970128;28;20029;-68
2022/09/12 03:46:07;;;;;;;181.10;46.72;;;;;;;10.35;100.00;101318.09;1970168;28;20575;-69
2022/09/12 03:47:04;;;;;;;173.15;45.60;;;;;;;10.36;100.00;101318.91;1970704;28;20034;-68
2022/09/12 03:48:03;;;;;;;172.18;45.60;;;;;;;10.36;100.00;101317.19;1970719;28;20037;-68
2022/09/12 03:49:01;;;;;;;171.32;45.90;;;;;;;10.39;100.00;101318.81;1970775;28;20065;-68
2022/09/12 03:49:58;;;;;;;168.98;45.42;;;;;;;10.39;100.00;101324.03;1970781;28;20025;-68
2022/09/12 03:51:03;;;;;;;168.50;46.50;;;;;;;10.39;100.00;101321.44;1970796;28;20036;-68
2022/09/12 03:52:00;;;;;;;166.02;44.90;;;;;;;10.39;100.00;101324.03;1970724;28;20036;-68
2022/09/12 03:52:58;;;;;;;176.82;46.50;;;;;;;10.38;100.00;101320.59;1970843;28;20465;-68
2022/09/12 03:53:56;;;;;;;178.10;45.58;;;;;;;10.38;100.00;101318.00;1970553;28;20024;-68
2022/09/12 03:54:53;;;;;;;169.30;44.45;;;;;;;10.39;100.00;101318.81;1970663;28;20021;-69
2022/09/12 03:55:51;;;;;;;162.40;43.67;;;;;;;10.38;100.00;101315.38;1970641;28;20421;-69
2022/09/12 03:56:48;;;;;;;160.98;43.15;;;;;;;10.38;100.00;101318.00;1970587;28;20409;-69
2022/09/12 03:57:45;;;;;;;161.23;44.38;;;;;;;10.36;100.00;101316.31;1970658;28;20474;-69
2022/09/12 03:58:43;;;;;;;162.23;45.45;;;;;;;10.39;100.00;101311.00;1970730;28;20084;-68
2022/09/12 03:59:40;;;;;;;166.05;44.03;;;;;;;10.40;100.00;101310.13;1970720;28;20061;-69
2022/09/12 04:00:38;;;;;;;175.80;44.42;;;;;;;10.41;100.00;101309.19;1970695;28;20119;-69
2022/09/12 04:01:37;;;;;;;169.45;46.00;;;;;;;10.43;100.00;101315.19;1970569;28;20026;-68
2022/09/12 04:02:34;;;;;;;170.98;45.72;;;;;;;10.44;100.00;101303.88;1970688;28;20508;-68
2022/09/12 04:03:32;;;;;;;176.75;45.13;;;;;;;10.45;100.00;101313.44;1970433;28;20054;-67
2022/09/12 04:04:30;;;;;;;180.95;46.22;;;;;;;10.46;100.00;101307.31;1970508;28;20052;-68
2022/09/12 04:05:27;;;;;;;181.77;46.67;;;;;;;10.47;100.00;101311.63;1970783;28;20466;-67
2022/09/12 04:06:25;;;;;;;166.75;45.70;;;;;;;10.47;100.00;101305.56;1968262;28;20049;-68
2022/09/12 04:07:22;;;;;;;176.60;45.47;;;;;;;10.46;100.00;101302.09;1970656;28;20112;-68
2022/09/12 04:08:20;;;;;;;175.50;46.53;;;;;;;10.45;100.00;101297.78;1970625;28;20496;-67
2022/09/12 04:09:17;;;;;;;179.98;46.17;;;;;;;10.44;100.00;101306.50;1970672;28;20057;-68
2022/09/12 04:10:15;;;;;;;170.60;46.25;;;;;;;10.43;100.00;101305.63;1970616;28;20119;-68
2022/09/12 04:11:15;;;;;;;180.75;46.53;;;;;;;10.45;100.00;101296.91;1970611;28;20040;-68
2022/09/12 04:12:12;;;;;;;180.45;46.83;;;;;;;10.44;100.00;101290.84;1970728;28;20036;-68
2022/09/12 04:13:10;;;;;;;181.25;45.88;;;;;;;10.46;100.00;101296.00;1970588;28;20028;-68
2022/09/12 04:14:07;;;;;;;176.05;46.38;;;;;;;10.45;100.00;101302.13;1970709;28;20409;-68
2022/09/12 04:15:06;;;;;;;182.52;46.83;;;;;;;10.44;100.00;101301.28;1970609;28;20097;-68
2022/09/12 04:16:05;;;;;;;173.68;47.00;;;;;;;10.44;100.00;101296.06;1970611;28;20029;-68
2022/09/12 04:17:03;;;;;;;183.95;46.88;;;;;;;10.43;100.00;101300.41;1970464;28;20029;-68
2022/09/12 04:18:00;;;;;;;177.85;46.10;;;;;;;10.44;100.00;101301.28;1970604;28;20398;-68
2022/09/12 04:18:58;;;;;;;178.77;47.10;;;;;;;10.44;100.00;101301.28;1970462;28;20057;-68
2022/09/12 04:19:55;;;;;;;180.70;46.53;;;;;;;10.44;100.00;101296.06;1970554;28;20029;-68
2022/09/12 04:20:53;;;;;;;188.73;47.75;;;;;;;10.45;100.00;101303.00;1970405;28;20022;-68
2022/09/12 04:21:50;;;;;;;181.77;45.78;;;;;;;10.45;100.00;101296.91;1970537;28;20033;-68
2022/09/12 04:22:48;;;;;;;191.57;48.47;;;;;;;10.45;100.00;101292.56;1970544;28;20038;-68
2022/09/12 04:23:45;;;;;;;172.50;44.88;;;;;;;10.42;100.00;101295.25;1970581;28;20029;-68
2022/09/12 04:24:43;;;;;;;177.63;45.67;;;;;;;10.43;100.00;101295.19;1970610;28;20029;-68
2022/09/12 04:25:40;;;;;;;183.27;45.58;;;;;;;10.44;100.00;101296.06;1970484;28;20030;-68
2022/09/12 04:26:37;;;;;;;190.85;45.85;;;;;;;10.43;100.00;101291.72;1970434;28;20556;-68
2022/09/12 04:27:35;;;;;;;182.73;46.03;;;;;;;10.42;100.00;101292.63;1969779;28;20029;-68
2022/09/12 04:28:35;;;;;;;187.00;47.28;;;;;;;10.42;100.00;101288.28;1970052;28;20065;-68
2022/09/12 04:29:32;;;;;;;173.73;45.65;;;;;;;10.42;100.00;101292.63;1970475;28;20477;-68
2022/09/12 04:30:30;;;;;;;179.73;45.10;;;;;;;10.42;100.00;101284.81;1977537;28;20021;-68
2022/09/12 04:31:27;;;;;;;193.05;47.58;;;;;;;10.44;100.00;101290.84;1977090;28;20090;-68
2022/09/12 04:32:24;;;;;;;188.27;45.92;;;;;;;10.44;100.00;101285.63;1971289;28;20034;-69
2022/09/12 04:33:22;;;;;;;190.63;46.30;;;;;;;10.44;100.00;101288.22;1970463;28;20030;-68
2022/09/12 04:34:19;;;;;;;205.18;47.67;;;;;;;10.45;100.00;101286.47;1970404;28;20021;-68
2022/09/12 04:35:16;;;;;;;191.52;46.85;;;;;;;10.45;100.00;101291.69;1970370;28;20499;-68
2022/09/12 04:36:16;;;;;;;191.27;46.95;;;;;;;10.45;100.00;101284.75;1968315;28;20029;-68
2022/09/12 04:37:13;;;;;;;190.88;45.95;;;;;;;10.47;100.00;101285.53;1970370;28;20037;-68
2022/09/12 04:38:11;;;;;;;189.38;46.78;;;;;;;10.49;100.00;101294.16;1970421;28;20386;-66
2022/09/12 04:39:10;;;;;;;189.07;47.25;;;;;;;10.50;100.00;101289.81;1970361;28;20119;-68
2022/09/12 04:40:08;;;;;;;194.75;48.05;;;;;;;10.51;100.00;101281.06;1970047;28;20022;-68
2022/09/12 04:41:24;;;;;;;189.60;48.20;;;;;;;10.50;100.00;101288.03;1970069;28;20083;-68
2022/09/12 04:42:23;;;;;;;189.82;45.75;;;;;;;10.50;100.00;101285.41;1970142;28;20030;-68
2022/09/12 04:43:20;;;;;;;209.25;47.92;;;;;;;10.51;100.00;101286.28;1970180;28;20104;-68
2022/09/12 04:44:17;;;;;;;185.27;46.10;;;;;;;10.51;100.00;101281.06;1969355;28;20136;-68
2022/09/12 04:45:15;;;;;;;193.55;46.75;;;;;;;10.51;100.00;101281.91;1961716;28;20030;-68
2022/09/12 04:46:18;;;;;;;211.32;48.40;;;;;;;10.53;100.00;101285.31;1968566;28;20022;-68
2022/09/12 04:47:15;;;;;;;193.25;47.35;;;;;;;10.51;100.00;101281.91;1977084;28;20061;-68
2022/09/12 04:48:13;;;;;;;193.38;46.33;;;;;;;10.52;100.00;101280.16;1970081;28;20033;-68
2022/09/12 04:49:15;;;;;;;190.05;46.60;;;;;;;10.53;100.00;101274.88;1977061;28;20116;-68
2022/09/12 04:50:13;;;;;;;187.02;45.83;;;;;;;10.52;100.00;101278.41;1977164;28;20026;-68
2022/09/12 04:51:20;;;;;;;192.18;46.33;;;;;;;10.52;100.00;101281.00;1970110;28;20030;-68